Time;durP1;ratioP1;P1;durP2;ratioP2;P2;SDS_P1;SDS_P2;PMS_P1;PMS_P2;Temp;Humidity;BMP_temperature;BMP_pressure;BME280_temperature;BME280_humidity;BME280_pressure;Samples;Min_cycle;Max_cycle;Signal;HPM_P1;HPM_P2
2023/09/09 00:00:59;;;;;;;21.60;8.90;;;;;;;14.31;82.24;100723.12;109741;1280;23443;-75
2023/09/09 00:03:38;;;;;;;16.40;7.00;;;;;;;14.30;82.28;100720.48;109752;1280;22459;-76
2023/09/09 00:06:13;;;;;;;18.30;6.60;;;;;;;14.28;82.32;100720.19;109779;1276;22163;-76
2023/09/09 00:08:44;;;;;;;19.60;7.90;;;;;;;14.25;82.74;100720.16;109755;1284;22249;-75
2023/09/09 00:11:15;;;;;;;17.20;7.90;;;;;;;14.23;82.83;100716.82;109762;1283;22258;-76
2023/09/09 00:13:46;;;;;;;20.40;7.60;;;;;;;14.22;82.84;100716.07;109809;1282;23040;-75
2023/09/09 00:16:17;;;;;;;16.50;6.80;;;;;;;14.21;82.76;100715.41;109755;1280;22148;-75
2023/09/09 00:18:48;;;;;;;19.60;8.30;;;;;;;14.19;82.92;100711.41;109750;1284;22180;-75
2023/09/09 00:21:18;;;;;;;20.40;8.30;;;;;;;14.16;83.10;100710.80;109774;1281;22329;-75
2023/09/09 00:23:49;;;;;;;19.30;7.50;;;;;;;14.13;82.95;100710.10;109748;1280;22392;-76
2023/09/09 00:26:20;;;;;;;20.60;8.00;;;;;;;14.10;83.12;100705.16;109760;1276;22219;-75
2023/09/09 00:28:51;;;;;;;19.10;7.50;;;;;;;14.06;83.17;100707.88;109739;1284;22329;-75
2023/09/09 00:31:21;;;;;;;17.70;7.70;;;;;;;14.03;83.22;100707.12;109754;1277;22346;-76
2023/09/09 00:33:53;;;;;;;17.40;8.10;;;;;;;13.99;83.16;100703.70;109772;1269;22154;-75
2023/09/09 00:36:24;;;;;;;15.70;6.30;;;;;;;13.96;83.20;100704.79;109737;1280;23049;-75
2023/09/09 00:38:55;;;;;;;18.80;8.10;;;;;;;13.93;83.36;100701.18;109771;1284;22676;-75
2023/09/09 00:41:25;;;;;;;16.40;6.90;;;;;;;13.91;83.27;100702.92;109760;1277;22614;-75
2023/09/09 00:43:56;;;;;;;20.80;7.30;;;;;;;13.88;83.52;100704.07;109799;1283;22311;-75
2023/09/09 00:46:27;;;;;;;19.10;7.60;;;;;;;13.85;83.64;100704.50;109765;1284;22257;-75
2023/09/09 00:49:00;;;;;;;18.70;7.40;;;;;;;13.81;83.79;100703.73;109766;1279;22383;-75
2023/09/09 00:51:31;;;;;;;16.90;7.20;;;;;;;13.77;83.85;100702.41;109777;1284;22178;-75
2023/09/09 00:54:02;;;;;;;20.50;7.40;;;;;;;13.74;83.81;100707.02;109780;1280;23356;-75
2023/09/09 00:56:34;;;;;;;19.10;7.40;;;;;;;13.71;83.96;100711.40;109770;1280;22166;-75
2023/09/09 00:59:05;;;;;;;18.10;7.60;;;;;;;13.67;83.81;100711.35;109753;1285;22281;-75
2023/09/09 01:01:36;;;;;;;15.70;7.50;;;;;;;13.65;83.98;100711.98;109778;1276;22180;-75
2023/09/09 01:04:08;;;;;;;14.60;6.70;;;;;;;13.62;84.07;100709.23;109777;1284;22221;-75
2023/09/09 01:06:39;;;;;;;22.90;7.90;;;;;;;13.59;84.18;100711.64;109735;1277;22314;-75
2023/09/09 01:09:10;;;;;;;17.20;7.70;;;;;;;13.57;84.18;100708.76;109740;1282;22196;-75
2023/09/09 01:11:41;;;;;;;17.60;7.00;;;;;;;13.55;84.15;100707.50;109786;1279;22362;-75
2023/09/09 01:14:12;;;;;;;18.20;7.20;;;;;;;13.52;84.27;100710.88;109755;1280;22159;-75
2023/09/09 01:16:44;;;;;;;19.40;8.20;;;;;;;13.49;84.33;100713.88;109786;1279;22391;-75
2023/09/09 01:19:16;;;;;;;17.20;6.70;;;;;;;13.45;84.45;100717.86;109742;1279;22169;-75
2023/09/09 01:21:49;;;;;;;19.60;7.20;;;;;;;13.41;84.45;100723.15;109773;1277;22154;-75
2023/09/09 01:24:20;;;;;;;18.70;7.00;;;;;;;13.39;84.61;100716.39;109752;1280;22334;-75
2023/09/09 01:26:51;;;;;;;15.80;6.80;;;;;;;13.39;84.51;100711.45;109747;1277;22173;-75
2023/09/09 01:29:22;;;;;;;18.40;7.50;;;;;;;13.39;84.71;100713.85;109780;1283;22186;-76
2023/09/09 01:31:53;;;;;;;16.50;6.70;;;;;;;13.40;84.84;100712.64;109747;1277;22668;-76
2023/09/09 01:34:23;;;;;;;18.10;6.90;;;;;;;13.40;84.94;100710.64;109764;1280;22345;-76
2023/09/09 01:36:54;;;;;;;17.40;7.80;;;;;;;13.39;84.94;100717.38;109733;1284;22199;-76
2023/09/09 01:39:25;;;;;;;19.40;7.30;;;;;;;13.40;84.96;100715.74;109753;1277;23246;-76
2023/09/09 01:41:56;;;;;;;19.80;7.00;;;;;;;13.41;84.99;100715.67;109764;1283;22382;-76
2023/09/09 01:44:26;;;;;;;24.30;8.50;;;;;;;13.43;85.11;100720.84;109787;1284;22390;-76
2023/09/09 01:46:57;;;;;;;18.70;7.60;;;;;;;13.43;85.40;100720.31;109777;1280;22337;-76
2023/09/09 01:49:28;;;;;;;17.70;7.30;;;;;;;13.41;85.42;100720.60;109758;1280;22344;-76
2023/09/09 01:51:58;;;;;;;19.10;8.20;;;;;;;13.39;85.56;100718.08;109749;1284;23041;-76
2023/09/09 01:54:30;;;;;;;19.70;6.80;;;;;;;13.38;85.59;100715.55;109746;1277;22157;-76
2023/09/09 01:57:01;;;;;;;21.10;8.10;;;;;;;13.39;85.65;100715.52;109769;1280;23060;-76
2023/09/09 01:59:31;;;;;;;24.60;8.40;;;;;;;13.40;85.98;100713.44;109752;1280;22363;-76
2023/09/09 02:02:02;;;;;;;21.00;7.60;;;;;;;13.39;86.03;100708.42;109677;1276;22431;-76
2023/09/09 02:04:33;;;;;;;16.80;6.60;;;;;;;13.40;86.07;100712.57;109706;1276;22990;-76
2023/09/09 02:07:04;;;;;;;18.30;7.70;;;;;;;13.39;86.22;100710.73;109779;1277;22142;-76
2023/09/09 02:09:34;;;;;;;20.30;8.60;;;;;;;13.39;86.26;100707.92;109757;1274;22125;-76
2023/09/09 02:12:06;;;;;;;21.90;9.20;;;;;;;13.40;86.27;100709.41;109787;1277;22215;-76
2023/09/09 02:14:36;;;;;;;20.80;9.20;;;;;;;13.41;86.49;100709.23;109774;1277;22834;-76
2023/09/09 02:17:08;;;;;;;21.10;8.90;;;;;;;13.44;86.79;100710.55;109754;1284;22251;-76
2023/09/09 02:19:39;;;;;;;24.70;8.90;;;;;;;13.48;87.14;100711.38;109741;1284;23087;-76
2023/09/09 02:22:10;;;;;;;20.00;8.80;;;;;;;13.50;87.26;100711.50;109769;1277;22769;-76
2023/09/09 02:24:40;;;;;;;22.20;9.70;;;;;;;13.52;87.38;100713.12;109748;1280;22140;-76
2023/09/09 02:27:11;;;;;;;27.20;10.60;;;;;;;13.54;87.51;100715.70;109794;1284;22158;-76
2023/09/09 02:29:42;;;;;;;22.60;10.30;;;;;;;13.55;87.36;100716.38;109732;1284;22170;-76
2023/09/09 02:32:13;;;;;;;20.40;9.40;;;;;;;13.57;87.65;100715.08;109728;1280;22417;-76
2023/09/09 02:34:43;;;;;;;24.30;10.20;;;;;;;13.56;87.66;100716.08;109730;1277;22153;-76
2023/09/09 02:37:16;;;;;;;23.70;10.50;;;;;;;13.56;87.82;100718.02;109754;1284;22228;-76
2023/09/09 02:39:49;;;;;;;22.10;8.90;;;;;;;13.57;87.79;100714.00;109750;1282;23020;-76
2023/09/09 02:42:22;;;;;;;22.40;10.10;;;;;;;13.57;87.65;100712.21;109769;1274;22620;-76
2023/09/09 02:44:52;;;;;;;21.80;9.30;;;;;;;13.56;87.88;100709.45;109755;1280;22377;-76
2023/09/09 02:47:23;;;;;;;21.60;9.40;;;;;;;13.54;87.74;100714.84;109774;1281;22339;-76
2023/09/09 02:49:54;;;;;;;21.60;9.40;;;;;;;13.54;87.92;100715.48;109752;1276;22168;-76
2023/09/09 02:52:25;;;;;;;21.50;9.10;;;;;;;13.54;88.27;100713.66;109747;1280;22166;-76
2023/09/09 02:54:55;;;;;;;21.90;9.60;;;;;;;13.53;88.28;100712.05;109747;1278;23670;-76
2023/09/09 02:57:26;;;;;;;19.80;9.30;;;;;;;13.49;88.32;100713.29;109768;1277;22311;-76
2023/09/09 02:59:57;;;;;;;24.50;9.80;;;;;;;13.47;88.20;100711.42;109784;1280;22326;-76
2023/09/09 03:02:28;;;;;;;21.30;10.90;;;;;;;13.45;88.17;100714.69;109758;1276;22177;-76
2023/09/09 03:04:59;;;;;;;20.90;9.70;;;;;;;13.41;88.29;100716.58;109732;1280;22741;-76
2023/09/09 03:07:30;;;;;;;22.50;10.40;;;;;;;13.39;88.25;100717.56;109775;1284;22389;-76
2023/09/09 03:10:00;;;;;;;20.80;9.10;;;;;;;13.36;88.39;100719.81;109764;1279;23192;-76
2023/09/09 03:12:31;;;;;;;22.60;10.40;;;;;;;13.32;88.37;100724.20;109746;1277;22353;-76
2023/09/09 03:15:05;;;;;;;22.50;9.90;;;;;;;13.29;88.27;100726.18;109748;1283;22237;-76
2023/09/09 03:17:36;;;;;;;20.40;9.00;;;;;;;13.24;88.32;100724.17;109734;1280;22318;-76
2023/09/09 03:20:08;;;;;;;21.30;10.00;;;;;;;13.21;88.44;100723.71;109773;1284;22937;-76
2023/09/09 03:22:39;;;;;;;19.60;9.20;;;;;;;13.17;88.44;100719.05;109766;1284;23113;-76
2023/09/09 03:25:11;;;;;;;22.30;9.10;;;;;;;13.14;88.32;100723.48;109748;1284;22212;-76
2023/09/09 03:27:42;;;;;;;22.20;10.40;;;;;;;13.11;88.19;100722.84;109770;1284;23383;-77
2023/09/09 03:30:13;;;;;;;23.60;9.80;;;;;;;13.08;88.18;100719.66;109765;1284;22883;-75
2023/09/09 03:32:44;;;;;;;21.40;9.00;;;;;;;13.04;88.23;100722.81;109778;1283;22996;-75
2023/09/09 03:35:15;;;;;;;22.90;9.40;;;;;;;13.01;88.34;100720.08;109748;1270;22195;-75
2023/09/09 03:37:46;;;;;;;22.40;10.40;;;;;;;12.98;88.30;100723.30;109748;1279;22406;-76
2023/09/09 03:40:17;;;;;;;22.60;9.70;;;;;;;12.95;88.46;100720.91;109746;1280;22209;-76
2023/09/09 03:42:47;;;;;;;22.80;9.40;;;;;;;12.92;88.53;100722.04;109783;1284;22314;-76
2023/09/09 03:45:18;;;;;;;16.70;7.80;;;;;;;12.89;88.57;100722.03;109745;1284;22561;-76
2023/09/09 03:47:49;;;;;;;17.10;8.10;;;;;;;12.87;88.54;100726.37;109756;1282;22210;-76
2023/09/09 03:50:19;;;;;;;22.20;9.60;;;;;;;12.85;88.57;100723.59;109764;1284;23046;-76
2023/09/09 03:52:50;;;;;;;23.30;9.80;;;;;;;12.83;88.67;100725.08;109800;1284;22831;-76
2023/09/09 03:55:21;;;;;;;22.40;10.00;;;;;;;12.81;88.80;100720.92;109788;1284;22183;-76
2023/09/09 03:57:52;;;;;;;20.30;10.40;;;;;;;12.78;88.85;100723.16;109758;1276;22316;-76
2023/09/09 04:00:23;;;;;;;20.50;9.80;;;;;;;12.75;88.96;100726.52;109785;1284;22227;-76
2023/09/09 04:02:53;;;;;;;20.60;9.10;;;;;;;12.73;88.95;100727.39;109752;1277;22180;-76
2023/09/09 04:05:24;;;;;;;21.20;10.10;;;;;;;12.70;88.87;100725.52;109718;1278;22828;-75
2023/09/09 04:07:58;;;;;;;18.70;8.90;;;;;;;12.70;88.91;100727.33;109803;1279;22141;-75
2023/09/09 04:10:29;;;;;;;19.80;9.80;;;;;;;12.68;88.99;100727.95;109770;1280;22143;-75
2023/09/09 04:12:59;;;;;;;21.10;9.80;;;;;;;12.67;88.94;100725.80;109744;1276;22282;-75
2023/09/09 04:15:30;;;;;;;20.80;9.90;;;;;;;12.65;89.06;100722.77;109729;1280;22246;-75
2023/09/09 04:18:01;;;;;;;22.40;10.70;;;;;;;12.64;89.08;100725.39;109734;1277;22680;-75
2023/09/09 04:20:32;;;;;;;18.50;8.50;;;;;;;12.62;89.31;100727.80;109785;1284;22182;-75
2023/09/09 04:23:02;;;;;;;27.10;9.00;;;;;;;12.60;89.23;100730.66;109777;1284;23040;-75
2023/09/09 04:25:33;;;;;;;20.60;9.90;;;;;;;12.57;89.54;100734.80;109746;1277;22204;-75
2023/09/09 04:28:04;;;;;;;19.70;8.80;;;;;;;12.55;89.46;100732.92;109775;1279;22223;-75
2023/09/09 04:30:34;;;;;;;18.80;9.50;;;;;;;12.53;89.58;100737.08;109775;1283;22254;-75
2023/09/09 04:33:06;;;;;;;25.90;9.30;;;;;;;12.52;89.67;100737.55;109786;1279;22352;-75
2023/09/09 04:35:36;;;;;;;23.10;10.50;;;;;;;12.51;89.60;100736.50;109748;1279;22937;-75
2023/09/09 04:38:07;;;;;;;22.50;10.00;;;;;;;12.50;89.72;100739.67;109737;1284;22962;-75
2023/09/09 04:40:40;;;;;;;22.80;10.00;;;;;;;12.49;89.82;100733.46;109783;1282;22218;-75
2023/09/09 04:43:11;;;;;;;20.50;9.30;;;;;;;12.48;89.82;100736.80;109757;1276;22189;-75
2023/09/09 04:45:41;;;;;;;18.70;8.30;;;;;;;12.46;89.89;100735.40;109690;1278;22392;-76
2023/09/09 04:48:12;;;;;;;17.80;8.60;;;;;;;12.45;89.86;100736.24;109657;1276;22350;-76
2023/09/09 04:50:42;;;;;;;18.00;8.60;;;;;;;12.45;89.78;100735.88;109724;1277;22298;-76
2023/09/09 04:53:13;;;;;;;16.60;7.50;;;;;;;12.44;90.02;100739.33;109639;1277;22326;-75
2023/09/09 04:55:44;;;;;;;18.00;7.30;;;;;;;12.43;89.98;100739.55;109682;1284;22230;-75
2023/09/09 04:58:15;;;;;;;16.50;7.40;;;;;;;12.43;90.33;100742.52;109682;1280;23026;-75
2023/09/09 05:00:46;;;;;;;17.80;8.00;;;;;;;12.43;90.30;100744.36;109655;1283;22438;-75
2023/09/09 05:03:17;;;;;;;14.90;6.20;;;;;;;12.44;90.45;100746.77;109674;1277;22418;-75
2023/09/09 05:05:47;;;;;;;16.10;7.40;;;;;;;12.46;90.60;100748.92;109666;1280;23615;-75
2023/09/09 05:08:18;;;;;;;16.00;6.10;;;;;;;12.47;90.71;100744.08;109698;1277;22331;-75
2023/09/09 05:10:49;;;;;;;18.60;6.40;;;;;;;12.49;90.87;100750.27;109694;1281;22330;-76
2023/09/09 05:13:20;;;;;;;16.10;7.00;;;;;;;12.52;91.10;100752.30;109681;1277;22410;-75
2023/09/09 05:15:51;;;;;;;16.10;7.50;;;;;;;12.56;91.25;100749.44;109711;1276;22422;-75
2023/09/09 05:18:22;;;;;;;14.20;6.50;;;;;;;12.61;91.66;100751.00;109766;1283;22149;-75
2023/09/09 05:20:53;;;;;;;16.30;7.50;;;;;;;12.66;91.54;100753.55;109671;1284;23053;-75
2023/09/09 05:23:24;;;;;;;16.10;8.10;;;;;;;12.71;91.79;100754.30;109757;1277;22840;-75
2023/09/09 05:25:54;;;;;;;18.90;8.10;;;;;;;12.76;91.84;100753.64;109754;1283;22228;-75
2023/09/09 05:28:25;;;;;;;16.00;7.30;;;;;;;12.82;91.77;100750.58;109768;1283;22987;-75
2023/09/09 05:30:56;;;;;;;17.70;7.70;;;;;;;12.88;91.97;100747.59;109744;1280;22308;-75
2023/09/09 05:33:26;;;;;;;20.70;9.60;;;;;;;12.95;92.04;100746.64;109756;1284;23033;-75
2023/09/09 05:35:57;;;;;;;21.40;9.80;;;;;;;13.03;92.36;100745.20;109775;1284;22226;-76
2023/09/09 05:38:29;;;;;;;23.50;12.20;;;;;;;13.11;92.62;100747.55;109763;1280;23044;-77
2023/09/09 05:41:00;;;;;;;24.60;12.80;;;;;;;13.18;93.04;100753.21;109753;1277;22224;-76
2023/09/09 05:43:31;;;;;;;26.40;12.60;;;;;;;13.26;93.91;100750.60;109760;1281;23044;-76
2023/09/09 05:46:03;;;;;;;25.20;13.40;;;;;;;13.33;93.63;100752.85;109721;1283;23143;-76
2023/09/09 05:48:36;;;;;;;32.20;13.50;;;;;;;13.42;93.79;100758.05;109740;1276;22258;-76
2023/09/09 05:51:07;;;;;;;29.20;14.40;;;;;;;13.51;94.04;100760.95;109770;1284;22308;-76
2023/09/09 05:53:37;;;;;;;23.10;12.80;;;;;;;13.60;94.14;100761.13;109764;1276;22950;-76
2023/09/09 05:56:08;;;;;;;27.90;14.30;;;;;;;13.69;94.15;100759.23;109752;1285;22327;-77
2023/09/09 05:58:41;;;;;;;28.80;15.10;;;;;;;13.79;94.51;100762.02;109705;1280;22244;-76
2023/09/09 06:01:12;;;;;;;28.40;15.70;;;;;;;13.87;95.02;100763.30;109716;1276;22351;-76
2023/09/09 06:03:43;;;;;;;30.30;15.50;;;;;;;13.94;94.73;100762.23;109742;1283;22840;-77
2023/09/09 06:06:13;;;;;;;28.70;14.90;;;;;;;14.02;94.70;100763.05;109730;1278;22248;-77
2023/09/09 06:08:45;;;;;;;25.20;14.30;;;;;;;14.10;94.96;100764.94;109697;1273;22991;-77
2023/09/09 06:11:16;;;;;;;29.90;16.50;;;;;;;14.17;95.11;100769.69;109735;1285;22152;-77
2023/09/09 06:13:47;;;;;;;30.50;15.50;;;;;;;14.25;95.28;100764.27;109698;1285;22162;-76
2023/09/09 06:16:18;;;;;;;29.80;15.30;;;;;;;14.32;95.15;100765.92;109683;1279;22272;-77
2023/09/09 06:18:49;;;;;;;26.80;15.60;;;;;;;14.39;95.24;100765.60;109752;1285;22274;-76
2023/09/09 06:21:20;;;;;;;29.80;16.10;;;;;;;14.47;95.74;100769.27;109770;1285;22341;-77
2023/09/09 06:23:51;;;;;;;30.70;17.50;;;;;;;14.56;95.78;100769.21;109702;1283;22155;-77
2023/09/09 06:26:22;;;;;;;31.60;17.00;;;;;;;14.65;96.19;100770.27;109753;1284;22214;-77
2023/09/09 06:28:53;;;;;;;30.60;17.50;;;;;;;14.74;96.39;100772.06;109743;1285;22208;-77
2023/09/09 06:31:23;;;;;;;30.10;17.20;;;;;;;14.83;96.51;100771.44;109740;1285;22196;-77
2023/09/09 06:33:54;;;;;;;31.70;17.20;;;;;;;14.91;96.59;100772.44;109718;1285;22241;-77
2023/09/09 06:36:25;;;;;;;30.10;17.10;;;;;;;14.99;96.53;100770.94;109763;1285;22152;-77
2023/09/09 06:38:56;;;;;;;31.20;17.90;;;;;;;15.07;96.51;100774.13;109750;1285;22205;-77
2023/09/09 06:41:26;;;;;;;29.20;17.70;;;;;;;15.15;96.57;100772.41;109731;1285;22178;-77
2023/09/09 06:43:57;;;;;;;28.70;17.00;;;;;;;15.23;96.77;100776.73;109662;1273;22195;-76
2023/09/09 06:46:28;;;;;;;33.80;17.70;;;;;;;15.33;97.19;100781.47;109692;1277;22346;-78
2023/09/09 06:48:59;;;;;;;31.10;17.10;;;;;;;15.43;97.27;100784.63;109747;1285;22296;-77
2023/09/09 06:51:30;;;;;;;36.60;18.70;;;;;;;15.54;97.25;100784.63;109712;1274;22201;-78
2023/09/09 06:54:01;;;;;;;31.80;17.40;;;;;;;15.63;97.27;100792.88;109673;1280;22201;-77
2023/09/09 06:56:31;;;;;;;27.40;16.50;;;;;;;15.71;97.16;100796.52;109711;1282;22209;-77
2023/09/09 06:59:03;;;;;;;27.60;16.40;;;;;;;15.79;97.38;100794.17;109769;1284;22166;-78
2023/09/09 07:01:34;;;;;;;32.80;16.70;;;;;;;15.91;97.88;100793.78;109771;1283;22772;-77
2023/09/09 07:04:06;;;;;;;28.30;16.70;;;;;;;16.05;98.47;100788.80;109762;1283;22176;-77
2023/09/09 07:06:36;;;;;;;31.90;17.90;;;;;;;16.18;98.50;100789.48;109770;1284;22234;-77
2023/09/09 07:09:09;;;;;;;33.80;17.50;;;;;;;16.31;98.22;100785.34;109774;1284;22183;-78
2023/09/09 07:11:41;;;;;;;27.80;15.80;;;;;;;16.42;98.20;100783.14;109772;1280;22994;-78
2023/09/09 07:14:13;;;;;;;31.10;16.70;;;;;;;16.55;98.79;100786.55;109765;1284;22201;-78
2023/09/09 07:16:44;;;;;;;30.80;15.70;;;;;;;16.71;98.88;100787.20;109760;1284;22374;-78
2023/09/09 07:19:15;;;;;;;29.40;15.10;;;;;;;16.83;98.75;100788.06;109774;1273;22635;-78
2023/09/09 07:21:45;;;;;;;25.80;14.10;;;;;;;16.96;98.63;100788.60;109733;1276;22284;-79
2023/09/09 07:24:16;;;;;;;27.80;13.80;;;;;;;17.11;98.66;100784.41;109785;1284;22202;-78
2023/09/09 07:26:47;;;;;;;28.50;14.80;;;;;;;17.25;98.35;100780.84;109744;1284;22156;-77
2023/09/09 07:29:18;;;;;;;25.40;14.10;;;;;;;17.38;97.99;100776.42;109807;1284;22154;-78
2023/09/09 07:31:48;;;;;;;24.60;13.60;;;;;;;17.49;97.55;100780.70;109755;1284;22340;-78
2023/09/09 07:34:20;;;;;;;28.00;13.50;;;;;;;17.64;98.06;100785.92;109776;1284;23088;-77
2023/09/09 07:36:50;;;;;;;26.10;14.50;;;;;;;17.80;97.91;100784.48;109764;1284;23254;-77
2023/09/09 07:39:21;;;;;;;24.70;12.50;;;;;;;17.93;97.42;100785.05;109785;1280;22173;-77
2023/09/09 07:41:52;;;;;;;27.70;14.20;;;;;;;18.05;97.24;100784.77;109759;1280;22241;-77
2023/09/09 07:44:23;;;;;;;27.50;13.60;;;;;;;18.19;96.97;100785.40;109763;1284;23006;-77
2023/09/09 07:46:54;;;;;;;27.50;11.90;;;;;;;18.30;96.70;100791.06;109758;1284;23258;-77
2023/09/09 07:49:24;;;;;;;25.80;13.60;;;;;;;18.46;96.78;100789.67;109711;1284;22194;-77
2023/09/09 07:51:55;;;;;;;22.40;12.40;;;;;;;18.62;96.39;100789.15;109762;1284;22186;-77
2023/09/09 07:54:26;;;;;;;22.40;10.90;;;;;;;18.72;95.76;100790.49;109766;1283;22326;-77
2023/09/09 07:56:58;;;;;;;24.10;9.40;;;;;;;18.89;95.39;100797.20;109728;1284;22188;-77
2023/09/09 07:59:29;;;;;;;20.40;10.10;;;;;;;19.01;94.55;100796.90;109746;1277;22639;-77
2023/09/09 08:02:02;;;;;;;23.80;10.80;;;;;;;19.11;94.00;100799.36;109777;1284;22841;-77
2023/09/09 08:04:33;;;;;;;21.20;8.80;;;;;;;19.22;93.86;100799.33;109726;1277;22337;-77
2023/09/09 08:07:04;;;;;;;21.60;9.50;;;;;;;19.37;93.76;100798.93;109747;1282;22191;-77
2023/09/09 08:09:35;;;;;;;17.70;8.40;;;;;;;19.45;93.03;100794.54;109772;1273;22190;-77
2023/09/09 08:12:06;;;;;;;20.60;10.00;;;;;;;19.55;93.11;100797.34;109752;1283;22371;-77
2023/09/09 08:14:37;;;;;;;22.90;9.40;;;;;;;19.72;92.89;100795.02;109724;1283;22168;-78
2023/09/09 08:17:08;;;;;;;19.10;9.60;;;;;;;19.85;92.19;100794.21;109672;1281;22270;-78
2023/09/09 08:19:39;;;;;;;21.50;10.20;;;;;;;19.96;91.93;100789.30;109741;1280;22409;-77
2023/09/09 08:22:10;;;;;;;26.30;10.40;;;;;;;20.12;91.48;100785.34;109762;1283;22211;-78
2023/09/09 08:24:41;;;;;;;22.30;9.40;;;;;;;20.29;91.09;100786.45;109750;1283;22366;-79
2023/09/09 08:27:13;;;;;;;23.40;8.70;;;;;;;20.42;90.76;100780.20;109696;1283;22476;-77
2023/09/09 08:29:46;;;;;;;22.60;9.00;;;;;;;20.56;90.49;100776.36;109745;1283;22980;-77
2023/09/09 08:32:17;;;;;;;19.70;8.60;;;;;;;20.69;90.09;100774.85;109790;1284;22417;-77
2023/09/09 08:34:48;;;;;;;18.00;8.40;;;;;;;20.81;89.35;100778.14;109763;1276;22301;-77
2023/09/09 08:37:19;;;;;;;19.10;8.70;;;;;;;20.99;89.51;100775.71;109780;1283;22187;-77
2023/09/09 08:39:54;;;;;;;20.60;8.20;;;;;;;21.13;88.78;100777.16;109726;1277;22405;-77
2023/09/09 08:42:40;;;;;;;17.50;8.00;;;;;;;21.21;88.19;100781.39;109719;1283;22519;-77
2023/09/09 08:45:24;;;;;;;19.90;7.90;;;;;;;21.29;87.66;100782.33;109771;1277;22077;-77
2023/09/09 08:47:59;;;;;;;18.40;7.70;;;;;;;21.38;87.46;100780.53;109763;1283;22175;-77
2023/09/09 08:50:32;;;;;;;18.60;7.40;;;;;;;21.47;86.58;100773.98;109740;1283;22304;-77
2023/09/09 08:53:05;;;;;;;17.40;7.50;;;;;;;21.61;85.89;100773.73;109796;1283;22428;-77
2023/09/09 08:55:37;;;;;;;17.70;7.70;;;;;;;21.72;85.37;100772.08;109761;1280;22891;-77
2023/09/09 08:58:08;;;;;;;24.40;8.40;;;;;;;21.84;85.23;100771.16;109774;1276;22702;-78
2023/09/09 09:00:39;;;;;;;16.60;6.10;;;;;;;21.94;84.28;100767.94;109737;1280;22269;-77
2023/09/09 09:03:12;;;;;;;14.90;6.60;;;;;;;22.05;83.56;100765.02;109741;1276;23035;-76
2023/09/09 09:05:43;;;;;;;16.60;7.80;;;;;;;22.15;82.99;100762.83;109721;1276;22207;-76
2023/09/09 09:08:14;;;;;;;18.20;6.90;;;;;;;22.27;82.37;100761.75;109734;1283;22321;-76
2023/09/09 09:10:47;;;;;;;12.30;4.80;;;;;;;22.40;81.99;100764.31;109782;1283;22220;-77
2023/09/09 09:13:17;;;;;;;19.20;6.90;;;;;;;22.51;81.07;100759.90;109808;1283;22207;-76
2023/09/09 09:15:48;;;;;;;21.90;7.30;;;;;;;22.63;80.23;100760.03;109768;1276;22203;-76
2023/09/09 09:18:19;;;;;;;20.30;7.30;;;;;;;22.71;79.30;100760.86;109802;1269;22179;-76
2023/09/09 09:20:52;;;;;;;16.90;5.50;;;;;;;22.78;78.60;100758.10;109807;1277;23103;-76
2023/09/09 09:23:23;;;;;;;23.60;6.70;;;;;;;22.87;77.51;100757.77;109751;1267;22344;-75
2023/09/09 09:25:54;;;;;;;14.10;5.10;;;;;;;22.99;77.30;100757.90;109717;1276;22411;-76
2023/09/09 09:28:29;;;;;;;15.60;6.20;;;;;;;23.06;76.63;100763.07;109746;1284;22318;-75
2023/09/09 09:31:00;;;;;;;16.50;6.20;;;;;;;23.15;75.94;100755.08;109748;1284;23311;-76
2023/09/09 09:33:32;;;;;;;12.20;4.80;;;;;;;23.23;74.81;100753.33;109757;1283;22316;-75
2023/09/09 09:36:03;;;;;;;14.10;5.00;;;;;;;23.36;74.12;100752.48;109757;1284;23391;-75
2023/09/09 09:38:35;;;;;;;13.40;5.40;;;;;;;23.46;74.16;100761.08;109711;1284;22562;-75
2023/09/09 09:41:06;;;;;;;15.50;5.60;;;;;;;23.52;73.63;100761.97;109732;1277;23182;-76
2023/09/09 09:43:37;;;;;;;15.20;5.30;;;;;;;23.58;72.89;100763.05;109782;1283;22931;-76
2023/09/09 09:46:19;;;;;;;11.90;5.10;;;;;;;23.65;71.67;100760.23;109757;1283;23105;-75
2023/09/09 09:48:50;;;;;;;13.20;4.80;;;;;;;23.71;71.76;100755.97;109757;1283;22198;-76
2023/09/09 09:51:21;;;;;;;15.40;4.80;;;;;;;23.75;71.25;100754.36;109777;1283;22208;-76
2023/09/09 09:53:55;;;;;;;12.90;5.40;;;;;;;23.77;71.03;100758.49;109727;1284;22148;-76
2023/09/09 09:56:26;;;;;;;14.50;4.80;;;;;;;23.82;70.84;100752.14;109751;1278;22187;-76
2023/09/09 09:58:57;;;;;;;17.30;6.10;;;;;;;23.89;70.93;100755.14;109724;1283;22349;-77
2023/09/09 10:01:29;;;;;;;13.70;5.60;;;;;;;23.96;70.11;100752.84;109769;1283;22374;-76
2023/09/09 10:04:10;;;;;;;16.80;7.00;;;;;;;24.05;70.21;100757.29;109751;1284;22270;-76
2023/09/09 10:06:42;;;;;;;16.60;5.50;;;;;;;24.14;69.47;100755.33;109556;1283;218971;-76
2023/09/09 10:09:20;;;;;;;9.70;3.40;;;;;;;24.21;68.91;100750.80;109745;1284;22917;-77
2023/09/09 10:12:01;;;;;;;14.70;5.10;;;;;;;24.30;68.85;100749.27;109729;1284;22232;-76
2023/09/09 10:14:32;;;;;;;11.80;5.10;;;;;;;24.39;67.92;100742.34;109746;1284;22342;-78
2023/09/09 10:17:07;;;;;;;17.30;5.30;;;;;;;24.50;67.88;100742.80;109738;1277;23047;-77
2023/09/09 10:19:41;;;;;;;15.50;5.70;;;;;;;24.57;67.11;100737.13;109751;1280;22736;-77
2023/09/09 10:22:12;;;;;;;14.60;4.30;;;;;;;24.61;66.69;100734.92;109771;1279;22408;-77
2023/09/09 10:24:47;;;;;;;12.60;4.80;;;;;;;24.64;65.73;100733.98;109732;1277;23333;-77
2023/09/09 10:27:20;;;;;;;12.10;4.40;;;;;;;24.71;64.60;100732.23;109737;1284;22292;-76
2023/09/09 10:29:54;;;;;;;12.80;4.60;;;;;;;24.77;64.86;100734.86;109749;1283;22926;-77
2023/09/09 10:32:26;;;;;;;16.50;5.30;;;;;;;24.79;65.11;100732.16;109788;1283;22186;-76
2023/09/09 10:34:58;;;;;;;17.70;4.80;;;;;;;24.80;64.96;100733.15;109764;1283;22926;-79
2023/09/09 10:37:31;;;;;;;11.20;3.80;;;;;;;24.81;64.10;100729.81;109796;1283;22330;-77
2023/09/09 10:40:04;;;;;;;10.80;4.20;;;;;;;24.85;64.11;100730.13;109793;1283;22227;-77
2023/09/09 10:42:38;;;;;;;14.40;4.50;;;;;;;24.89;63.13;100725.83;109791;1283;22338;-77
2023/09/09 10:45:29;;;;;;;14.30;3.90;;;;;;;24.96;63.06;100727.33;109742;1283;22150;-77
2023/09/09 10:48:03;;;;;;;12.60;4.80;;;;;;;25.01;62.30;100724.83;109761;1280;23188;-77
2023/09/09 10:50:45;;;;;;;12.20;4.70;;;;;;;25.03;62.23;100719.50;109746;1284;22142;-77
2023/09/09 10:53:23;;;;;;;11.20;4.40;;;;;;;25.05;61.24;100719.17;109759;1283;22176;-77
2023/09/09 10:55:56;;;;;;;12.90;4.20;;;;;;;25.08;61.64;100717.41;109699;1276;22443;-77
2023/09/09 10:58:34;;;;;;;12.70;4.60;;;;;;;25.13;61.21;100720.80;109707;1277;22219;-77
2023/09/09 11:01:06;;;;;;;11.30;4.50;;;;;;;25.19;60.87;100720.54;109789;1277;22155;-78
2023/09/09 11:03:48;;;;;;;12.50;4.50;;;;;;;25.24;60.82;100721.43;109769;1283;22246;-77
2023/09/09 11:06:27;;;;;;;12.00;4.80;;;;;;;25.26;60.71;100719.67;109755;1281;22183;-78
2023/09/09 11:08:58;;;;;;;;;;;;;;;25.29;60.44;100719.38;109741;1276;22354;-77
2023/09/09 11:11:35;;;;;;;12.30;4.10;;;;;;;25.32;60.18;100716.55;109789;1283;22350;-79
2023/09/09 11:14:07;;;;;;;12.70;4.80;;;;;;;25.35;60.09;100720.05;109743;1284;22170;-76
2023/09/09 11:16:39;;;;;;;11.60;3.70;;;;;;;25.37;59.91;100717.55;109750;1276;22366;-76
2023/09/09 11:19:11;;;;;;;15.50;5.40;;;;;;;25.41;59.59;100718.10;109768;1280;22160;-77
2023/09/09 11:21:44;;;;;;;14.50;4.80;;;;;;;25.45;59.42;100717.51;109784;1283;22216;-76
2023/09/09 11:24:16;;;;;;;13.40;5.40;;;;;;;25.49;59.69;100717.41;109729;1278;22261;-77
2023/09/09 11:26:48;;;;;;;12.90;4.70;;;;;;;25.51;59.50;100705.91;109776;1277;22169;-76